createdAt,value
2022-09-01T00:01:49.659Z,-61
2022-09-01T00:04:20.787Z,-61
2022-09-01T00:06:48.437Z,-61
2022-09-01T00:09:18.161Z,-61
2022-09-01T00:11:50.602Z,-61
2022-09-01T00:14:29.634Z,-61
2022-09-01T00:17:01.167Z,-61
2022-09-01T00:19:29.485Z,-61
2022-09-01T00:21:56.467Z,-60
2022-09-01T00:24:22.991Z,-61
2022-09-01T00:26:49.397Z,-60
2022-09-01T00:29:16.150Z,-60
2022-09-01T00:31:42.776Z,-61
2022-09-01T00:34:09.414Z,-61
2022-09-01T00:36:35.869Z,-61
2022-09-01T00:39:03.528Z,-60
2022-09-01T00:41:32.782Z,-61
2022-09-01T00:44:05.334Z,-60
2022-09-01T00:46:36.504Z,-61
2022-09-01T00:49:16.025Z,-61
2022-09-01T00:51:47.815Z,-60
2022-09-01T00:54:20.020Z,-61
2022-09-01T00:56:57.317Z,-60
2022-09-01T00:59:26.386Z,-61
2022-09-01T01:01:53.376Z,-60
2022-09-01T01:04:20.136Z,-61
2022-09-01T01:06:58.630Z,-61
2022-09-01T01:09:26.782Z,-61
2022-09-01T01:11:53.533Z,-61
2022-09-01T01:14:20.099Z,-60
2022-09-01T01:16:50.678Z,-61
2022-09-01T01:19:44.093Z,-61
2022-09-01T01:22:36.636Z,-61
2022-09-01T01:25:03.477Z,-61
2022-09-01T01:27:34.806Z,-60
2022-09-01T01:30:12.483Z,-61
2022-09-01T01:32:43.099Z,-61
2022-09-01T01:35:14.748Z,-61
2022-09-01T01:37:48.747Z,-60
2022-09-01T01:40:17.983Z,-60
2022-09-01T01:42:50.801Z,-61
2022-09-01T01:45:19.952Z,-60
2022-09-01T01:47:53.047Z,-60
2022-09-01T01:50:25.728Z,-60
2022-09-01T01:52:58.128Z,-61
2022-09-01T01:55:28.598Z,-61
2022-09-01T01:57:56.207Z,-60
2022-09-01T02:00:30.443Z,-61
2022-09-01T02:02:57.991Z,-60
2022-09-01T02:05:32.063Z,-60
2022-09-01T02:08:03.933Z,-61
2022-09-01T02:10:38.909Z,-61
2022-09-01T02:13:07.546Z,-60
2022-09-01T02:15:44.079Z,-60
2022-09-01T02:18:14.154Z,-61
2022-09-01T02:20:41.864Z,-61
2022-09-01T02:23:11.502Z,-61
2022-09-01T02:25:59.068Z,-60
2022-09-01T02:28:27.658Z,-60
2022-09-01T02:30:57.867Z,-60
2022-09-01T02:33:25.283Z,-61
2022-09-01T02:35:55.104Z,-61
2022-09-01T02:38:23.884Z,-61
2022-09-01T02:40:50.324Z,-60
2022-09-01T02:43:20.265Z,-61
2022-09-01T02:45:55.551Z,-60
2022-09-01T02:48:32.857Z,-61
2022-09-01T02:51:02.010Z,-61
2022-09-01T02:53:34.164Z,-61
2022-09-01T02:56:09.319Z,-60
2022-09-01T02:58:45.625Z,-61
2022-09-01T03:01:24.828Z,-61
2022-09-01T03:03:55.617Z,-61
2022-09-01T03:06:24.171Z,-58
2022-09-01T03:08:53.039Z,-58
2022-09-01T03:11:19.912Z,-58
2022-09-01T03:13:46.705Z,-59
2022-09-01T03:16:13.343Z,-60
2022-09-01T03:18:40.242Z,-61
2022-09-01T03:21:08.316Z,-60
2022-09-01T03:23:38.003Z,-60
2022-09-01T03:26:04.708Z,-60
2022-09-01T03:28:31.878Z,-61
2022-09-01T03:30:59.069Z,-60
2022-09-01T03:33:27.619Z,-61
2022-09-01T03:35:54.975Z,-61
2022-09-01T03:38:24.057Z,-60
2022-09-01T03:40:52.978Z,-61
2022-09-01T03:43:23.404Z,-60
2022-09-01T03:45:49.858Z,-60
2022-09-01T03:48:17.053Z,-60
2022-09-01T03:50:46.276Z,-61
2022-09-01T03:53:19.989Z,-61
2022-09-01T03:55:47.949Z,-61
2022-09-01T03:58:18.930Z,-60
2022-09-01T04:00:55.319Z,-61
2022-09-01T04:03:28.937Z,-61
2022-09-01T04:05:56.420Z,-61
2022-09-01T04:08:32.412Z,-58
2022-09-01T04:11:03.690Z,-58
2022-09-01T04:13:35.397Z,-58
2022-09-01T04:16:02.202Z,-59
2022-09-01T04:18:30.148Z,-60
2022-09-01T04:20:59.339Z,-59
2022-09-01T04:23:33.506Z,-59
2022-09-01T04:26:08.757Z,-59
2022-09-01T04:28:39.088Z,-59
2022-09-01T04:31:09.204Z,-58
2022-09-01T04:33:39.794Z,-61
2022-09-01T04:36:15.080Z,-58
2022-09-01T04:38:41.427Z,-58
2022-09-01T04:41:09.390Z,-58
2022-09-01T04:43:36.117Z,-60
2022-09-01T04:46:03.300Z,-58
2022-09-01T04:48:31.656Z,-58
2022-09-01T04:50:58.652Z,-58
2022-09-01T04:53:25.012Z,-58
2022-09-01T04:55:55.137Z,-58
2022-09-01T04:58:22.124Z,-58
2022-09-01T05:00:52.149Z,-58
2022-09-01T05:03:21.442Z,-60
2022-09-01T05:05:47.795Z,-58
2022-09-01T05:08:23.499Z,-58
2022-09-01T05:10:55.381Z,-58
2022-09-01T05:13:23.509Z,-58
2022-09-01T05:16:05.970Z,-58
2022-09-01T05:18:32.824Z,-58
2022-09-01T05:21:09.710Z,-59
2022-09-01T05:23:37.382Z,-58
2022-09-01T05:26:06.239Z,-58
2022-09-01T05:28:32.772Z,-59
2022-09-01T05:31:00.971Z,-58
2022-09-01T05:33:27.585Z,-59
2022-09-01T05:35:56.939Z,-58
2022-09-01T05:38:25.656Z,-60
2022-09-01T05:41:03.670Z,-58
2022-09-01T05:43:31.501Z,-59
2022-09-01T05:46:06.579Z,-59
2022-09-01T05:48:39.549Z,-59
2022-09-01T05:51:22.432Z,-60
2022-09-01T05:53:59.205Z,-60
2022-09-01T05:56:31.004Z,-60
2022-09-01T06:01:50.463Z,-60
2022-09-01T06:04:18.031Z,-60
2022-09-01T06:07:05.298Z,-60
2022-09-01T06:09:36.671Z,-59
2022-09-01T06:12:03.326Z,-59
2022-09-01T06:14:29.672Z,-62
2022-09-01T06:16:56.286Z,-59
2022-09-01T06:19:22.787Z,-59
2022-09-01T06:21:49.158Z,-59
2022-09-01T06:24:15.544Z,-59
2022-09-01T06:26:42.166Z,-61
2022-09-01T06:29:15.181Z,-58
2022-09-01T06:31:42.494Z,-60
2022-09-01T06:34:13.848Z,-60
2022-09-01T06:36:40.638Z,-60
2022-09-01T06:39:08.361Z,-60
2022-09-01T06:41:37.779Z,-60
2022-09-01T06:44:04.209Z,-59
2022-09-01T06:46:31.788Z,-59
2022-09-01T06:48:59.026Z,-58
2022-09-01T06:51:29.235Z,-60
2022-09-01T06:53:59.826Z,-58
2022-09-01T06:56:32.024Z,-59
2022-09-01T06:58:59.964Z,-59
2022-09-01T07:01:27.594Z,-58
2022-09-01T07:03:57.176Z,-58
2022-09-01T07:09:22.260Z,-61
2022-09-01T07:12:25.373Z,-58
2022-09-01T07:17:36.562Z,-60
2022-09-01T07:23:07.149Z,-60
2022-09-01T07:26:01.054Z,-58
2022-09-01T07:28:36.058Z,-58
2022-09-01T07:33:55.681Z,-58
2022-09-01T07:45:27.699Z,-58
2022-09-01T07:47:55.176Z,-59
2022-09-01T07:53:12.489Z,-58
2022-09-01T07:55:44.178Z,-58
2022-09-01T07:58:11.862Z,-58
2022-09-01T08:00:40.254Z,-58
2022-09-01T08:03:06.981Z,-58
2022-09-01T08:05:33.852Z,-58
2022-09-01T08:08:01.120Z,-58
2022-09-01T08:10:28.571Z,-58
2022-09-01T08:12:56.992Z,-58
2022-09-01T08:15:41.680Z,-58
2022-09-01T08:18:14.337Z,-58
2022-09-01T08:20:45.525Z,-58
2022-09-01T08:23:14.856Z,-58
2022-09-01T08:25:44.677Z,-58
2022-09-01T08:28:13.863Z,-58
2022-09-01T08:30:42.322Z,-61
2022-09-01T08:33:18.662Z,-61
2022-09-01T08:35:47.941Z,-61
2022-09-01T08:38:14.933Z,-61
2022-09-01T08:40:43.481Z,-61
2022-09-01T08:43:24.979Z,-61
2022-09-01T08:45:57.894Z,-61
2022-09-01T08:49:23.735Z,-61
2022-09-01T08:51:32.557Z,-61
2022-09-01T08:54:03.110Z,-61
2022-09-01T08:56:30.715Z,-61
2022-09-01T09:01:58.527Z,-62
2022-09-01T09:04:47.403Z,-61
2022-09-01T09:07:32.597Z,-61
2022-09-01T09:10:10.603Z,-61
2022-09-01T09:13:00.575Z,-61
2022-09-01T09:16:07.325Z,-61
2022-09-01T09:18:56.911Z,-61
2022-09-01T09:21:34.242Z,-61
2022-09-01T09:24:06.166Z,-61
2022-09-01T09:26:48.314Z,-60
2022-09-01T09:29:14.853Z,-60
2022-09-01T09:31:49.913Z,-60
2022-09-01T09:34:32.459Z,-60
2022-09-01T09:37:31.344Z,-60
2022-09-01T09:40:18.219Z,-61
2022-09-01T09:42:54.018Z,-60
2022-09-01T09:45:27.552Z,-60
2022-09-01T09:47:55.919Z,-58
2022-09-01T09:50:30.569Z,-58
2022-09-01T09:53:27.925Z,-59
2022-09-01T09:56:16.348Z,-58
2022-09-01T09:58:46.521Z,-59
2022-09-01T10:01:30.704Z,-59
2022-09-01T10:04:01.589Z,-59
2022-09-01T10:06:42.001Z,-61
2022-09-01T10:09:33.101Z,-61
2022-09-01T10:12:02.024Z,-61
2022-09-01T10:14:52.014Z,-61
2022-09-01T10:17:43.569Z,-61
2022-09-01T10:20:18.626Z,-61
2022-09-01T10:22:45.141Z,-61
2022-09-01T10:25:17.959Z,-61
2022-09-01T10:27:50.077Z,-61
2022-09-01T10:30:20.113Z,-61
2022-09-01T10:32:55.950Z,-61
2022-09-01T10:35:31.457Z,-61
2022-09-01T10:38:00.036Z,-62
2022-09-01T10:40:31.031Z,-61
2022-09-01T10:43:23.443Z,-60
2022-09-01T10:45:56.046Z,-60
2022-09-01T10:48:46.283Z,-59
2022-09-01T10:51:19.293Z,-59
2022-09-01T10:53:55.220Z,-59
2022-09-01T10:56:35.442Z,-60
2022-09-01T11:02:22.641Z,-61
2022-09-01T11:04:40.937Z,-59
2022-09-01T11:07:38.878Z,-61
2022-09-01T11:10:32.710Z,-61
2022-09-01T11:13:31.648Z,-61
2022-09-01T11:19:33.078Z,-61
2022-09-01T11:22:14.012Z,-62
2022-09-01T11:24:41.175Z,-62
2022-09-01T11:27:12.139Z,-62
2022-09-01T11:30:15.920Z,-64
2022-09-01T11:32:47.037Z,-63
2022-09-01T11:35:26.656Z,-63
2022-09-01T11:38:02.064Z,-62
2022-09-01T11:40:32.495Z,-60
2022-09-01T11:43:04.461Z,-60
2022-09-01T11:45:33.732Z,-60
2022-09-01T11:48:09.432Z,-60
2022-09-01T11:50:38.424Z,-61
2022-09-01T11:53:12.051Z,-61
2022-09-01T11:55:44.533Z,-61
2022-09-01T11:58:31.721Z,-60
2022-09-01T12:01:15.713Z,-60
2022-09-01T12:03:42.978Z,-60
2022-09-01T12:06:12.687Z,-60
2022-09-01T12:08:43.232Z,-61
2022-09-01T12:11:12.838Z,-60
2022-09-01T12:13:40.972Z,-60
2022-09-01T12:16:18.902Z,-60
2022-09-01T12:18:48.696Z,-60
2022-09-01T12:21:23.942Z,-60
2022-09-01T12:23:50.666Z,-60
2022-09-01T12:26:24.893Z,-60
2022-09-01T12:28:53.008Z,-60
2022-09-01T12:31:23.664Z,-61
2022-09-01T12:33:52.088Z,-61
2022-09-01T12:36:28.839Z,-62
2022-09-01T12:39:16.534Z,-60
2022-09-01T12:41:45.309Z,-60
2022-09-01T12:44:34.536Z,-60
2022-09-01T12:47:10.499Z,-62
2022-09-01T12:49:47.937Z,-61
2022-09-01T12:52:25.786Z,-61
2022-09-01T12:55:47.382Z,-61
2022-09-01T12:58:09.050Z,-60
2022-09-01T13:00:53.629Z,-61
2022-09-01T13:03:21.491Z,-60
2022-09-01T13:05:54.158Z,-60
2022-09-01T13:08:26.908Z,-61
2022-09-01T13:11:01.121Z,-61
2022-09-01T13:13:27.908Z,-61
2022-09-01T13:16:01.374Z,-60
2022-09-01T13:18:29.070Z,-61
2022-09-01T13:20:56.950Z,-60
2022-09-01T13:23:23.614Z,-59
2022-09-01T13:25:50.372Z,-61
2022-09-01T13:28:17.437Z,-60
2022-09-01T13:30:48.489Z,-60
2022-09-01T13:33:20.095Z,-63
2022-09-01T13:35:48.339Z,-62
2022-09-01T13:38:16.572Z,-62
2022-09-01T13:40:46.294Z,-62
2022-09-01T13:43:15.187Z,-65
2022-09-01T13:45:42.013Z,-62
2022-09-01T13:48:17.229Z,-62
2022-09-01T13:53:33.384Z,-62
2022-09-01T13:55:59.876Z,-63
2022-09-01T13:58:26.308Z,-62
2022-09-01T14:00:52.767Z,-62
2022-09-01T14:03:22.925Z,-64
2022-09-01T14:05:50.452Z,-62
2022-09-01T14:08:19.643Z,-62
2022-09-01T14:10:50.666Z,-62
2022-09-01T14:13:18.578Z,-62
2022-09-01T14:15:46.821Z,-62
2022-09-01T14:18:14.920Z,-62
2022-09-01T14:20:44.588Z,-63
2022-09-01T14:23:13.179Z,-62
2022-09-01T14:25:47.049Z,-63
2022-09-01T14:28:14.628Z,-62
2022-09-01T14:30:43.364Z,-62
2022-09-01T14:33:10.758Z,-62
2022-09-01T14:35:41.532Z,-62
2022-09-01T14:38:08.761Z,-63
2022-09-01T14:40:40.007Z,-62
2022-09-01T14:43:14.204Z,-62
2022-09-01T14:45:44.419Z,-60
2022-09-01T14:48:10.785Z,-60
2022-09-01T14:50:40.849Z,-60
2022-09-01T14:53:07.654Z,-62
2022-09-01T14:55:33.995Z,-62
2022-09-01T14:58:00.770Z,-64
2022-09-01T15:00:28.394Z,-63
2022-09-01T15:02:55.082Z,-63
2022-09-01T15:05:22.150Z,-62
2022-09-01T15:07:48.861Z,-63
2022-09-01T15:10:24.459Z,-63
2022-09-01T15:12:51.776Z,-64
2022-09-01T15:15:18.604Z,-63
2022-09-01T15:17:46.517Z,-63
2022-09-01T15:20:32.106Z,-63
2022-09-01T15:22:58.630Z,-63
2022-09-01T15:25:25.590Z,-64
2022-09-01T15:27:52.124Z,-65
2022-09-01T15:30:20.230Z,-63
2022-09-01T15:32:50.094Z,-61
2022-09-01T15:35:17.241Z,-60
2022-09-01T15:37:46.567Z,-64
2022-09-01T15:40:12.989Z,-66
2022-09-01T15:42:39.599Z,-60
2022-09-01T15:45:09.373Z,-60
2022-09-01T15:47:36.001Z,-62
2022-09-01T15:50:07.536Z,-61
2022-09-01T15:52:34.681Z,-60
2022-09-01T15:55:02.442Z,-62
2022-09-01T15:57:28.812Z,-62
2022-09-01T15:59:55.261Z,-61
2022-09-01T16:02:23.744Z,-61
2022-09-01T16:04:50.139Z,-60
2022-09-01T16:07:16.689Z,-62
2022-09-01T16:09:43.097Z,-60
2022-09-01T16:12:09.681Z,-62
2022-09-01T16:14:36.057Z,-60
2022-09-01T16:17:10.856Z,-60
2022-09-01T16:19:59.809Z,-60
2022-09-01T16:22:29.890Z,-60
2022-09-01T16:25:00.731Z,-61
2022-09-01T16:27:41.883Z,-61
2022-09-01T16:30:14.142Z,-60
2022-09-01T16:32:45.123Z,-60
2022-09-01T16:35:12.896Z,-60
2022-09-01T16:37:56.889Z,-60
2022-09-01T16:40:56.294Z,-61
2022-09-01T16:43:40.425Z,-60
2022-09-01T16:46:20.779Z,-60
2022-09-01T16:49:14.917Z,-60
2022-09-01T16:52:06.617Z,-60
2022-09-01T16:54:55.008Z,-60
2022-09-01T16:57:53.363Z,-62
2022-09-01T17:00:30.840Z,-65
2022-09-01T17:03:19.670Z,-62
2022-09-01T17:06:01.736Z,-65
2022-09-01T17:08:34.232Z,-63
2022-09-01T17:11:10.308Z,-62
2022-09-01T17:13:44.784Z,-64
2022-09-01T17:16:42.077Z,-61
2022-09-01T17:19:17.853Z,-64
2022-09-01T17:21:52.873Z,-61
2022-09-01T17:24:40.372Z,-62
2022-09-01T17:27:14.231Z,-62
2022-09-01T17:29:46.927Z,-61
2022-09-01T17:32:31.998Z,-61
2022-09-01T17:35:07.564Z,-62
2022-09-01T17:37:52.974Z,-61
2022-09-01T17:40:26.506Z,-62
2022-09-01T17:43:01.029Z,-62
2022-09-01T17:45:47.631Z,-61
2022-09-01T17:48:20.705Z,-61
2022-09-01T17:51:08.550Z,-62
2022-09-01T17:53:56.237Z,-62
2022-09-01T17:56:43.805Z,-61
2022-09-01T17:59:22.389Z,-62
2022-09-01T18:02:00.279Z,-62
2022-09-01T18:04:46.602Z,-61
2022-09-01T18:07:37.815Z,-62
2022-09-01T18:10:07.680Z,-62
2022-09-01T18:12:39.173Z,-62
2022-09-01T18:15:19.866Z,-62
2022-09-01T18:18:00.109Z,-62
2022-09-01T18:20:38.884Z,-62
2022-09-01T18:23:12.501Z,-63
2022-09-01T18:25:49.468Z,-63
2022-09-01T18:28:16.662Z,-63
2022-09-01T18:30:53.253Z,-62
2022-09-01T18:33:38.237Z,-64
2022-09-01T18:36:26.713Z,-61
2022-09-01T18:39:01.965Z,-63
2022-09-01T18:41:43.498Z,-63
2022-09-01T18:44:42.275Z,-64
2022-09-01T18:47:11.931Z,-63
2022-09-01T18:50:04.631Z,-63
2022-09-01T18:52:59.560Z,-62
2022-09-01T18:55:53.964Z,-62
2022-09-01T18:58:42.218Z,-61
2022-09-01T19:01:22.087Z,-60
2022-09-01T19:04:06.975Z,-59
2022-09-01T19:06:50.694Z,-59
2022-09-01T19:09:33.692Z,-60
2022-09-01T19:12:35.836Z,-61
2022-09-01T19:15:16.821Z,-60
2022-09-01T19:17:43.402Z,-59
2022-09-01T19:20:41.961Z,-60
2022-09-01T19:23:16.828Z,-60
2022-09-01T19:25:43.607Z,-60
2022-09-01T19:28:20.041Z,-60
2022-09-01T19:30:52.571Z,-60
2022-09-01T19:33:25.070Z,-59
2022-09-01T19:35:56.306Z,-60
2022-09-01T19:38:27.721Z,-59
2022-09-01T19:41:08.327Z,-60
2022-09-01T19:43:37.165Z,-59
2022-09-01T19:46:29.508Z,-60
2022-09-01T19:49:10.207Z,-61
2022-09-01T19:51:49.007Z,-60
2022-09-01T19:54:44.558Z,-63
2022-09-01T19:57:15.776Z,-62
2022-09-01T20:00:09.227Z,-62
2022-09-01T20:02:42.982Z,-62
2022-09-01T20:05:16.839Z,-61
2022-09-01T20:07:49.389Z,-61
2022-09-01T20:10:55.316Z,-61
2022-09-01T20:13:46.017Z,-61
2022-09-01T20:16:38.402Z,-61
2022-09-01T20:19:13.689Z,-60
2022-09-01T20:21:44.597Z,-60
2022-09-01T20:24:16.774Z,-61
2022-09-01T20:27:14.642Z,-62
2022-09-01T20:29:49.733Z,-63
2022-09-01T20:32:27.433Z,-62
2022-09-01T20:34:58.651Z,-61
2022-09-01T20:37:39.604Z,-60
2022-09-01T20:40:24.464Z,-60
2022-09-01T20:43:06.505Z,-60
2022-09-01T20:45:32.965Z,-60
2022-09-01T20:48:12.853Z,-60
2022-09-01T20:50:59.896Z,-60
2022-09-01T20:53:49.325Z,-60
2022-09-01T20:56:31.632Z,-60
2022-09-01T20:59:09.650Z,-60
2022-09-01T21:01:52.166Z,-60
2022-09-01T21:04:45.769Z,-60
2022-09-01T21:07:18.097Z,-60
2022-09-01T21:10:09.470Z,-60
2022-09-01T21:12:51.508Z,-60
2022-09-01T21:15:42.693Z,-60
2022-09-01T21:18:23.824Z,-60
2022-09-01T21:20:53.069Z,-60
2022-09-01T21:23:20.695Z,-60
2022-09-01T21:25:48.214Z,-60
2022-09-01T21:28:19.514Z,-60
2022-09-01T21:30:54.255Z,-60
2022-09-01T21:33:21.987Z,-60
2022-09-01T21:35:48.570Z,-60
2022-09-01T21:38:15.066Z,-60
2022-09-01T21:40:42.293Z,-60
2022-09-01T21:43:18.448Z,-60
2022-09-01T21:45:45.839Z,-60
2022-09-01T21:48:12.745Z,-60
2022-09-01T21:50:40.499Z,-60
2022-09-01T21:53:08.704Z,-60
2022-09-01T21:55:36.633Z,-60
2022-09-01T21:58:03.529Z,-60
2022-09-01T22:00:33.192Z,-60
2022-09-01T22:03:01.620Z,-60
2022-09-01T22:05:29.597Z,-60
2022-09-01T22:07:58.394Z,-60
2022-09-01T22:10:28.045Z,-60
2022-09-01T22:12:56.137Z,-60
2022-09-01T22:15:25.494Z,-60
2022-09-01T22:17:53.346Z,-60
2022-09-01T22:20:25.450Z,-60
2022-09-01T22:22:51.933Z,-60
2022-09-01T22:25:21.155Z,-60
2022-09-01T22:27:47.665Z,-60
2022-09-01T22:30:14.222Z,-60
2022-09-01T22:32:45.194Z,-60
2022-09-01T22:35:12.870Z,-59
2022-09-01T22:37:39.679Z,-60
2022-09-01T22:40:07.157Z,-60
2022-09-01T22:42:35.100Z,-60
2022-09-01T22:45:02.019Z,-60
2022-09-01T22:47:28.402Z,-60
2022-09-01T22:49:55.093Z,-60
2022-09-01T22:52:21.642Z,-60
2022-09-01T22:54:48.954Z,-60
2022-09-01T22:57:15.323Z,-60
2022-09-01T22:59:44.736Z,-60
2022-09-01T23:02:11.563Z,-59
2022-09-01T23:04:38.884Z,-60
2022-09-01T23:07:06.365Z,-60
2022-09-01T23:09:33.154Z,-60
2022-09-01T23:11:59.554Z,-60
2022-09-01T23:14:26.405Z,-60
2022-09-01T23:16:53.000Z,-60
2022-09-01T23:19:21.222Z,-60
2022-09-01T23:21:48.239Z,-60
2022-09-01T23:24:15.357Z,-60
2022-09-01T23:26:44.768Z,-60
2022-09-01T23:29:11.780Z,-60
2022-09-01T23:31:39.396Z,-60
2022-09-01T23:34:07.984Z,-60
2022-09-01T23:36:35.009Z,-60
2022-09-01T23:39:01.950Z,-60
2022-09-01T23:41:32.881Z,-60
2022-09-01T23:44:03.325Z,-60
2022-09-01T23:46:37.162Z,-60
2022-09-01T23:49:04.289Z,-60
2022-09-01T23:51:30.799Z,-60
2022-09-01T23:53:57.409Z,-60
2022-09-01T23:56:26.630Z,-60
2022-09-01T23:58:53.655Z,-59
